Adams Corners, NY

3:21 PM EDT on April 18, 2015 (GMT -0400)
Roaring Brook Lake | | Change Station
CLOSE
Current Station
Personal Weather Station
Location: Putnam Valley, NY
Elevation: 968 ft
Nearby Weather Stations
Active Advisory: Fire Weather Warning

Elev 968 ft 41.43 °N, 73.81 °W | Updated 6 minutes ago

Partly Cloudy
Partly Cloudy
82.8 °F
Feels Like 80 °F
N
0.0
Wind Variable Wind from North
Gusts 0.0 mph

Today
High -- | Low -- °F
--% Chance of Precip.
Yesterday
High -- | Low -- °F
Precip. -- in
6:11 AM 7:38 PM
New Moon, 0% visible
Pressure 29.87 in
Visibility 20.0 miles
Clouds Scattered Clouds 5000 ft
Heat Index 80 °F
Dew Point 34 °F
Humidity 17%
Rainfall 0.00 in
Snow Depth Not available.
UV 6 out of 12
Pollen 11.30 out of 12
Air Quality Not available.
Flu Activity Widespread
METAR KSWF 181845Z 30012G22KT 20SM SCT050 24/06 A2987

More Conditions Fewer Conditions

Pressure 29.87 in
Visibility 20.0 miles
Clouds Scattered Clouds 5000 ft
Heat Index 80 °F
Dew Point 34 °F
Humidity 17%
Rainfall 0.00 in
Snow Depth Not available.
UV 6 out of 12
Pollen 11.30 out of 12
Air Quality Not available.
Flu Activity Widespread
METAR KSWF 181845Z 30012G22KT 20SM SCT050 24/06 A2987

More Conditions Fewer Conditions

10-Day Weather Forecast

Almanac

Astronomy

Apr. 18, 2015 Rise Set
Actual Time
Civil Twilight
Nautical Twilight
Astronomical Twilight
Moon
Length of Visible Light
Length of Day
Tomorrow will be .
, % of the Moon is Illuminated

Today's Extremes

State Highs State Lows

Community

WunderPhotos

Upload Photos

1,814,501 photos uploaded!

WunderBlogs® & News

Nearby

Air Quality

  Air Quality AQ Index Pollutant
Not available.

Snow Depth

Station Depth Elevation

Earthquake Activity

City Distance Mag. Time & Date
Minimum magnitude displayed is 2.5.

Coastal Water Temperatures

Place Temperature

Stations

Nearby Weather Stations

Station Location Temp. Windchill Dew Point Humidity Wind Precip. Elev Updated Type
                   
Fire Weather Warning
Statement as of 11:50 AM EDT on April 18, 2015

... Red flag warning remains in effect until 8 PM EDT this evening
for the tri-state area...

* affected area... New York City... northeast New Jersey... the lower
Hudson Valley... southern Connecticut... and Long Island.

* Winds... sustained winds 15 to 20 mph with gusts 25 to 30 mph.

* Relative humidity... 20 to 30 percent.

* Timing... through 8 PM this evening.

* Impacts... rapid fire spread if ignition occurs. A wind shift
is expected by this evening that may create additional hazards
for any ongoing fires.

Precautionary/preparedness actions...

A red flag warning means that critical fire weather conditions
are expected or occurring. A combination of strong winds... low
relative humidity... and dry fuels will create a significantly
elevated fire growth potential.



Maloit